Huvudsida
METAR-TAF:

METAR-TAF

Flygplatser :

Bahrains internationella flygplats

Bahrain, Bahrain

latitud: 26-16N, longitud: 050-39E, höjd: 2 m

Aktuellt väderrapport

Denna rapport gjordes för 17 minuter sedan, klockan 18:00 UTC
Vind 7 kt från nord/nordväst
Temperatur 21°C
Fuktighet 64%
Tryck 1024 hPa
Sikt 10 km eller mer
Få moln på en höjd av 3000 ft

METAR: OBBI 161800Z 33007KT 9999 FEW030 21/14 Q1024 NOSIG

Tid: 21:17 (18:17 UTC)

Väderprognos

Denna rapport gjordes för 1 timme och 17 minuter sedan, klockan 17:00 UTC
Prognos gäller från 16 kl. 18 UTC till 18 kl. 00 UTC
Vind 8 kt från nord/nordväst
Sikt 10 km eller mer
Få moln på en höjd av 2500 ft

TAF: OBBI 161700Z 1618/1800 34008KT 9999 FEW025

Aktuella väderrapporter och prognoser från 4000 flygplatser (METAR- och TAF-rapporter).

De tillgängliga stationerna syns som gula och röda prickar på kartan.

För musen över prickarna för att se namnen på stationerna.

Klicka sedan för att få väderrapporter och prognoser.

För att ändra kartan: Klicka på de gröna knapparna med ett svart kors på för att zooma in; den gröna knappen med ett streck på för att zooma ut; eller på de gröna pilarna för angränsande kartor.


METAR-TAF: